Time;durP1;ratioP1;P1;durP2;ratioP2;P2;SDS_P1;SDS_P2;PMS_P1;PMS_P2;Temp;Humidity;BMP_temperature;BMP_pressure;BME280_temperature;BME280_humidity;BME280_pressure;Samples;Min_cycle;Max_cycle;Signal;HPM_P1;HPM_P2
2023/05/21 00:00:25;;;;;;;;;;;;;;;19.39;100.00;97652.03;5083177;28;19925;-69
2023/05/21 00:02:52;;;;;;;;;;;;;;;19.45;100.00;97652.63;5076508;28;19997;-70
2023/05/21 00:05:20;;;;;;;;;;;;;;;19.44;100.00;97647.53;5073111;28;19931;-70
2023/05/21 00:07:46;;;;;;;;;;;;;;;19.55;100.00;97646.03;5072916;28;19924;-71
2023/05/21 00:10:13;;;;;;;;;;;;;;;19.45;100.00;97641.78;5084614;28;19994;-69
2023/05/21 00:12:40;;;;;;;;;;;;;;;19.39;100.00;97635.78;5074332;28;20681;-69
2023/05/21 00:15:08;;;;;;;;;;;;;;;19.72;100.00;97633.19;5071020;28;19929;-71
2023/05/21 00:17:35;;;;;;;;;;;;;;;19.47;100.00;97631.41;5075334;28;20005;-71
2023/05/21 00:20:04;;;;;;;;;;;;;;;19.37;100.00;97629.84;5076513;28;19925;-72
2023/05/21 00:22:32;;;;;;;;;;;;;;;19.32;100.00;97621.91;5076521;28;19925;-71
2023/05/21 00:24:58;;;;;;;;;;;;;;;19.49;100.00;97625.69;5076473;28;20071;-70
2023/05/21 00:27:25;;;;;;;;;;;;;;;19.37;100.00;97626.38;5073644;28;19943;-74
2023/05/21 00:29:51;;;;;;;;;;;;;;;19.37;100.00;97629.06;5071968;28;19960;-72
2023/05/21 00:32:18;;;;;;;;;;;;;;;19.33;100.00;97623.50;5069912;28;20011;-72
2023/05/21 00:34:45;;;;;;;;;;;;;;;19.48;100.00;97627.59;5083758;28;19966;-72
2023/05/21 00:37:14;;;;;;;;;;;;;;;19.57;100.00;97628.34;5072402;28;19948;-69
2023/05/21 00:39:40;;;;;;;;;;;;;;;19.65;100.00;97634.84;5075043;28;20058;-70
2023/05/21 00:42:06;;;;;;;;;;;;;;;19.67;100.00;97627.16;5076814;28;20087;-71
2023/05/21 00:44:34;;;;;;;;;;;;;;;19.79;100.00;97629.94;5081294;28;20033;-72
2023/05/21 00:47:00;;;;;;;;;;;;;;;19.86;100.00;97624.81;5075121;28;19988;-71
2023/05/21 00:49:28;;;;;;;;;;;;;;;19.89;100.00;97624.16;5073559;28;19928;-70
2023/05/21 00:51:55;;;;;;;;;;;;;;;20.12;100.00;97630.81;5074514;28;19935;-70
2023/05/21 00:54:22;;;;;;;;;;;;;;;20.10;100.00;97624.94;5084196;28;19925;-70
2023/05/21 00:56:49;;;;;;;;;;;;;;;20.14;100.00;97623.16;5070910;28;20218;-71
2023/05/21 00:59:15;;;;;;;;;;;;;;;20.10;100.00;97624.16;5087291;28;19951;-72
2023/05/21 01:01:44;;;;;;;;;;;;;;;19.86;100.00;97622.91;5074978;28;19925;-70
2023/05/21 01:04:11;;;;;;;;;;;;;;;19.72;100.00;97625.06;5076482;28;19925;-70
2023/05/21 01:06:38;;;;;;;;;;;;;;;19.68;100.00;97628.75;5084997;28;19928;-69
2023/05/21 01:09:06;;;;;;;;;;;;;;;19.46;100.00;97626.34;5080374;28;19925;-70
2023/05/21 01:11:37;;;;;;;;;;;;;;;19.55;100.00;97629.78;5074077;28;19947;-71
2023/05/21 01:14:06;;;;;;;;;;;;;;;19.44;100.00;97625.84;5078214;28;19924;-70
2023/05/21 01:16:35;;;;;;;;;;;;;;;19.29;100.00;97625.28;5076304;28;19929;-70
2023/05/21 01:19:03;;;;;;;;;;;;;;;19.25;100.00;97627.03;5072549;28;19970;-70
2023/05/21 01:21:30;;;;;;;;;;;;;;;19.28;100.00;97625.63;5069918;28;19925;-70
2023/05/21 01:23:57;;;;;;;;;;;;;;;19.24;100.00;97619.25;5072385;28;20000;-73
2023/05/21 01:26:25;;;;;;;;;;;;;;;19.20;100.00;97619.09;5075487;28;19971;-70
2023/05/21 01:28:51;;;;;;;;;;;;;;;19.03;100.00;97623.81;5081523;28;19936;-70
2023/05/21 01:31:23;;;;;;;;;;;;;;;18.85;100.00;97623.84;5079555;28;19929;-70
2023/05/21 01:33:52;;;;;;;;;;;;;;;18.87;100.00;97623.53;5076562;28;20183;-71
2023/05/21 01:36:22;;;;;;;;;;;;;;;18.83;100.00;97631.50;5077473;28;19979;-70
2023/05/21 01:38:54;;;;;;;;;;;;;;;18.81;100.00;97622.13;5075942;28;19924;-71
2023/05/21 01:41:22;;;;;;;;;;;;;;;18.77;100.00;97621.97;5075737;28;19963;-71
2023/05/21 01:43:49;;;;;;;;;;;;;;;18.71;100.00;97622.47;5074866;28;19964;-72
2023/05/21 01:46:17;;;;;;;;;;;;;;;18.80;100.00;97613.22;5071901;28;19924;-71
2023/05/21 01:48:44;;;;;;;;;;;;;;;18.75;100.00;97616.06;5072293;28;19924;-71
2023/05/21 01:51:11;;;;;;;;;;;;;;;18.67;100.00;97611.50;5075633;28;19960;-71
2023/05/21 01:53:37;;;;;;;;;;;;;;;18.70;100.00;97604.63;5075676;28;19964;-71
2023/05/21 01:56:04;;;;;;;;;;;;;;;18.82;100.00;97607.47;5081813;28;19924;-70
2023/05/21 01:58:32;;;;;;;;;;;;;;;18.80;100.00;97607.81;5074877;28;19935;-70
2023/05/21 02:00:58;;;;;;;;;;;;;;;18.99;100.00;97602.00;5075526;28;19971;-71
2023/05/21 02:03:25;;;;;;;;;;;;;;;19.07;100.00;97606.56;5074781;28;19952;-71
2023/05/21 02:05:52;;;;;;;;;;;;;;;19.16;100.00;97606.53;5070348;28;19929;-71
2023/05/21 02:08:19;;;;;;;;;;;;;;;19.40;100.00;97595.94;5068197;28;19988;-71
2023/05/21 02:10:45;;;;;;;;;;;;;;;19.27;100.00;97602.34;5071913;28;19963;-70
2023/05/21 02:13:12;;;;;;;;;;;;;;;19.26;100.00;97600.75;5075102;28;19924;-71
2023/05/21 02:15:40;;;;;;;;;;;;;;;19.35;100.00;97598.78;5068751;28;19952;-70
2023/05/21 02:18:07;;;;;;;;;;;;;;;19.50;100.00;97600.97;5076701;28;20335;-70
2023/05/21 02:20:33;;;;;;;;;;;;;;;19.54;100.00;97601.91;5074241;28;19999;-70
2023/05/21 02:23:00;;;;;;;;;;;;;;;19.50;100.00;97600.97;5075134;28;20693;-70
2023/05/21 02:25:26;;;;;;;;;;;;;;;19.45;100.00;97601.16;5074943;28;19956;-70
2023/05/21 02:27:55;;;;;;;;;;;;;;;19.32;100.00;97605.66;5070267;28;19952;-70
2023/05/21 02:30:21;;;;;;;;;;;;;;;19.40;100.00;97596.72;5070901;28;19925;-70
2023/05/21 02:32:49;;;;;;;;;;;;;;;19.61;100.00;97598.69;5071153;28;19948;-70
2023/05/21 02:35:16;;;;;;;;;;;;;;;19.75;100.00;97597.28;5075845;28;20007;-71
2023/05/21 02:37:43;;;;;;;;;;;;;;;19.89;100.00;97597.84;5074729;28;19959;-71
2023/05/21 02:40:09;;;;;;;;;;;;;;;20.12;100.00;97606.41;5076712;28;19940;-71
2023/05/21 02:42:38;;;;;;;;;;;;;;;20.33;100.00;97601.78;5073525;28;19984;-71
2023/05/21 02:45:05;;;;;;;;;;;;;;;20.51;100.00;97605.16;5074702;28;19925;-71
2023/05/21 02:47:31;;;;;;;;;;;;;;;20.57;100.00;97603.81;5075052;28;19932;-71
2023/05/21 02:50:00;;;;;;;;;;;;;;;20.63;100.00;97604.38;5074934;28;19936;-71
2023/05/21 02:52:26;;;;;;;;;;;;;;;20.63;100.00;97605.19;5072842;28;19931;-71
2023/05/21 02:54:53;;;;;;;;;;;;;;;20.64;100.00;97601.31;5089970;28;19952;-72
2023/05/21 02:57:19;;;;;;;;;;;;;;;20.67;100.00;97605.31;5075976;28;19937;-71
2023/05/21 02:59:47;;;;;;;;;;;;;;;20.68;100.00;97601.44;5069366;28;20498;-70
2023/05/21 03:02:13;;;;;;;;;;;;;;;20.68;100.00;97602.25;5074064;28;19929;-70
2023/05/21 03:04:45;;;;;;;;;;;;;;;20.69;100.00;97594.91;5073148;28;19987;-70
2023/05/21 03:07:13;;;;;;;;;;;;;;;20.47;100.00;97596.09;5075034;28;19971;-73
2023/05/21 03:09:40;;;;;;;;;;;;;;;20.38;100.00;97593.47;5073990;28;19921;-70
2023/05/21 03:12:07;;;;;;;;;;;;;;;20.26;100.00;97595.34;5070940;28;20370;-70
2023/05/21 03:14:34;;;;;;;;;;;;;;;20.22;100.00;97594.38;5068271;28;20001;-70
2023/05/21 03:17:02;;;;;;;;;;;;;;;20.33;100.00;97601.03;5072720;28;19924;-71
2023/05/21 03:19:29;;;;;;;;;;;;;;;20.37;100.00;97600.00;5076728;28;19960;-71
2023/05/21 03:21:55;;;;;;;;;;;;;;;20.46;100.00;97591.78;5076490;28;19924;-71
2023/05/21 03:24:23;;;;;;;;;;;;;;;20.53;100.00;97591.22;5070563;28;19956;-71
2023/05/21 03:26:49;;;;;;;;;;;;;;;20.10;100.00;97591.63;5078194;28;19924;-71
2023/05/21 03:29:16;;;;;;;;;;;;;;;19.77;100.00;97599.69;5078086;28;19947;-71
2023/05/21 03:31:42;;;;;;;;;;;;;;;19.34;100.00;97592.59;5075776;28;20393;-71
2023/05/21 03:34:08;;;;;;;;;;;;;;;19.19;100.00;97589.63;5077464;28;19925;-71
2023/05/21 03:36:35;;;;;;;;;;;;;;;18.94;100.00;97593.28;5075665;28;19954;-71
2023/05/21 03:39:02;;;;;;;;;;;;;;;18.75;100.00;97590.94;5073082;28;20001;-71
2023/05/21 03:41:30;;;;;;;;;;;;;;;18.84;100.00;97595.22;5076143;28;19925;-71
2023/05/21 03:43:56;;;;;;;;;;;;;;;18.71;100.00;97601.63;5085574;28;19924;-71
2023/05/21 03:46:22;;;;;;;;;;;;;;;18.79;100.00;97608.91;5072967;28;19992;-71
2023/05/21 03:48:49;;;;;;;;;;;;;;;18.48;100.00;97602.09;5074388;28;19987;-71
2023/05/21 03:51:16;;;;;;;;;;;;;;;18.35;100.00;97593.84;5077226;28;19936;-71
2023/05/21 03:53:43;;;;;;;;;;;;;;;18.18;100.00;97602.00;5077184;28;19932;-71
2023/05/21 03:56:09;;;;;;;;;;;;;;;18.03;100.00;97607.09;5077043;28;19925;-71
2023/05/21 03:58:37;;;;;;;;;;;;;;;17.92;100.00;97601.19;5074588;28;20011;-71
2023/05/21 04:01:04;;;;;;;;;;;;;;;17.98;100.00;97605.31;5072960;28;19932;-71
2023/05/21 04:03:31;;;;;;;;;;;;;;;18.04;100.00;97608.69;5075478;28;20040;-71
2023/05/21 04:05:58;;;;;;;;;;;;;;;18.06;100.00;97609.97;5085255;28;20064;-71
2023/05/21 04:08:25;;;;;;;;;;;;;;;18.04;100.00;97612.16;5072949;28;19960;-71
2023/05/21 04:10:51;;;;;;;;;;;;;;;18.26;100.00;97605.78;5074095;28;19935;-71
2023/05/21 04:13:17;;;;;;;;;;;;;;;18.41;100.00;97604.53;5077362;28;20006;-71
2023/05/21 04:15:45;;;;;;;;;;;;;;;18.58;100.00;97605.31;5077393;28;19959;-71
2023/05/21 04:18:12;;;;;;;;;;;;;;;18.55;100.00;97602.44;5077092;28;19924;-71
2023/05/21 04:20:38;;;;;;;;;;;;;;;18.53;100.00;97602.78;5075630;28;19988;-71
2023/05/21 04:23:05;;;;;;;;;;;;;;;18.59;100.00;97598.00;5071714;28;19966;-71
2023/05/21 04:25:31;;;;;;;;;;;;;;;18.50;100.00;97602.63;5083206;28;19951;-71
2023/05/21 04:27:57;;;;;;;;;;;;;;;18.63;100.00;97596.25;5075911;28;20011;-71
2023/05/21 04:30:24;;;;;;;;;;;;;;;18.58;100.00;97607.22;5073728;28;19928;-71
2023/05/21 04:32:53;;;;;;;;;;;;;;;18.51;100.00;97602.28;5077374;28;19932;-72
2023/05/21 04:35:20;;;;;;;;;;;;;;;18.44;100.00;97601.19;5079532;28;19942;-71
2023/05/21 04:37:46;;;;;;;;;;;;;;;18.30;100.00;97604.84;5077647;28;19963;-71
2023/05/21 04:40:16;;;;;;;;;;;;;;;18.33;100.00;97609.63;5076449;28;19956;-71
2023/05/21 04:42:43;;;;;;;;;;;;;;;18.43;100.00;97602.28;5075797;28;19986;-71
2023/05/21 04:45:10;;;;;;;;;;;;;;;18.41;100.00;97605.31;5077648;28;19963;-71
2023/05/21 04:47:36;;;;;;;;;;;;;;;18.60;100.00;97605.00;5076417;28;20338;-71
2023/05/21 04:50:04;;;;;;;;;;;;;;;18.53;100.00;97608.19;5076258;28;19920;-71
2023/05/21 04:52:33;;;;;;;;;;;;;;;18.57;100.00;97603.72;5072958;28;19924;-71
2023/05/21 04:55:00;;;;;;;;;;;;;;;18.61;100.00;97603.88;5073000;28;20020;-71
2023/05/21 04:57:27;;;;;;;;;;;;;;;18.65;100.00;97615.63;5076054;28;19951;-71
2023/05/21 04:59:53;;;;;;;;;;;;;;;18.76;100.00;97614.16;5076932;28;20264;-71
2023/05/21 05:02:19;;;;;;;;;;;;;;;18.97;100.00;97614.28;5076886;28;19935;-71
2023/05/21 05:04:46;;;;;;;;;;;;;;;19.06;100.00;97605.00;5075987;28;19967;-72
2023/05/21 05:07:13;;;;;;;;;;;;;;;19.34;100.00;97600.69;5072377;28;19932;-72
2023/05/21 05:09:40;;;;;;;;;;;;;;;19.48;100.00;97607.84;5082000;28;19925;-71
2023/05/21 05:12:06;;;;;;;;;;;;;;;19.51;100.00;97607.19;5076378;28;20069;-71
2023/05/21 05:14:33;;;;;;;;;;;;;;;19.60;100.00;97616.03;5073644;28;19960;-71
2023/05/21 05:16:59;;;;;;;;;;;;;;;19.63;100.00;97604.56;5077939;28;19950;-71
2023/05/21 05:19:25;;;;;;;;;;;;;;;19.65;100.00;97602.31;5076881;28;19925;-71
2023/05/21 05:21:52;;;;;;;;;;;;;;;19.67;100.00;97605.50;5077403;28;19927;-71
2023/05/21 05:24:19;;;;;;;;;;;;;;;19.67;100.00;97608.19;5076970;28;20015;-71
2023/05/21 05:26:46;;;;;;;;;;;;;;;19.67;100.00;97610.91;5076169;28;19952;-71
2023/05/21 05:29:12;;;;;;;;;;;;;;;19.62;100.00;97619.25;5079619;28;19931;-71
2023/05/21 05:31:38;;;;;;;;;;;;;;;19.70;100.00;97607.53;5082020;28;19928;-72
2023/05/21 05:34:05;;;;;;;;;;;;;;;19.60;100.00;97611.44;5076221;28;19970;-71
2023/05/21 05:36:32;;;;;;;;;;;;;;;19.61;100.00;97607.59;5072840;28;19987;-71
2023/05/21 05:38:58;;;;;;;;;;;;;;;19.59;100.00;97603.66;5072370;28;19956;-72
2023/05/21 05:41:26;;;;;;;;;;;;;;;19.55;100.00;97608.91;5075794;28;19963;-71
2023/05/21 05:43:52;;;;;;;;;;;;;;;19.72;100.00;97606.09;5076573;28;20015;-71
2023/05/21 05:46:19;;;;;;;;;;;;;;;19.70;100.00;97608.34;5075933;28;19921;-71
2023/05/21 05:48:45;;;;;;;;;;;;;;;19.72;100.00;97608.78;5075510;28;19980;-72
2023/05/21 05:51:11;;;;;;;;;;;;;;;19.98;100.00;97599.69;5076964;28;20045;-71
2023/05/21 05:53:38;;;;;;;;;;;;;;;19.79;100.00;97602.84;5080331;28;19925;-71
2023/05/21 05:56:04;;;;;;;;;;;;;;;19.75;100.00;97610.06;5075638;28;19952;-72
2023/05/21 05:58:32;;;;;;;;;;;;;;;19.85;100.00;97613.19;5072422;28;19992;-71
2023/05/21 06:00:58;;;;;;;;;;;;;;;19.87;100.00;97613.63;5068800;28;19927;-71
2023/05/21 06:03:25;;;;;;;;;;;;;;;19.96;100.00;97610.06;5074507;28;19988;-72
2023/05/21 06:05:51;;;;;;;;;;;;;;;20.07;100.00;97612.06;5075553;28;19931;-72
2023/05/21 06:08:17;;;;;;;;;;;;;;;20.02;100.00;97611.47;5075527;28;19925;-72
2023/05/21 06:10:44;;;;;;;;;;;;;;;19.80;100.00;97609.88;5074715;28;19956;-72
2023/05/21 06:13:10;;;;;;;;;;;;;;;19.89;100.00;97614.09;5086612;28;19975;-71
2023/05/21 06:15:41;;;;;;;;;;;;;;;20.01;100.00;97616.09;5081311;28;19993;-71
2023/05/21 06:18:08;;;;;;;;;;;;;;;20.14;100.00;97616.94;5075525;28;19979;-71
2023/05/21 06:20:34;;;;;;;;;;;;;;;20.21;100.00;97626.13;5072458;28;19988;-71
2023/05/21 06:23:00;;;;;;;;;;;;;;;20.29;100.00;97617.16;5071118;28;19924;-71
2023/05/21 06:25:27;;;;;;;;;;;;;;;20.23;100.00;97613.03;5073660;28;19935;-71
2023/05/21 06:27:53;;;;;;;;;;;;;;;20.15;100.00;97608.47;5074722;28;19971;-71
2023/05/21 06:30:19;;;;;;;;;;;;;;;19.95;100.00;97609.28;5081072;28;19936;-71
2023/05/21 06:32:47;;;;;;;;;;;;;;;19.80;100.00;97612.59;5074360;28;19932;-71
2023/05/21 06:35:13;;;;;;;;;;;;;;;19.79;100.00;97619.13;5075474;28;19988;-71
2023/05/21 06:37:40;;;;;;;;;;;;;;;19.72;100.00;97619.63;5075300;28;20008;-71
2023/05/21 06:40:07;;;;;;;;;;;;;;;19.63;100.00;97610.78;5075005;28;19964;-72
2023/05/21 06:42:33;;;;;;;;;;;;;;;19.64;100.00;97622.41;5072071;28;20609;-72
2023/05/21 06:45:01;;;;;;;;;;;;;;;19.60;100.00;97608.72;5071402;28;19956;-71
2023/05/21 06:47:27;;;;;;;;;;;;;;;19.64;100.00;97611.56;5074228;28;19932;-71
2023/05/21 06:49:55;;;;;;;;;;;;;;;19.68;100.00;97612.50;5076514;28;19992;-71
2023/05/21 06:52:21;;;;;;;;;;;;;;;19.71;100.00;97615.31;5079254;28;19964;-72
2023/05/21 06:54:48;;;;;;;;;;;;;;;19.79;100.00;97614.50;5078311;28;19925;-71
2023/05/21 06:57:14;;;;;;;;;;;;;;;19.91;100.00;97611.06;5074635;28;20027;-71
2023/05/21 06:59:41;;;;;;;;;;;;;;;19.92;100.00;97620.78;5083961;28;19956;-71
2023/05/21 07:02:07;;;;;;;;;;;;;;;19.96;100.00;97618.22;5078063;28;19928;-71
2023/05/21 07:04:34;;;;;;;;;;;;;;;20.07;100.00;97622.91;5074956;28;19996;-71
2023/05/21 07:07:03;;;;;;;;;;;;;;;20.10;100.00;97618.72;5074533;28;19931;-70
2023/05/21 07:09:29;;;;;;;;;;;;;;;20.01;100.00;97626.13;5076720;28;20291;-71
2023/05/21 07:11:56;;;;;;;;;;;;;;;20.00;100.00;97622.63;5077929;28;19980;-70
2023/05/21 07:14:26;;;;;;;;;;;;;;;20.04;100.00;97614.63;5077647;28;20016;-70
2023/05/21 07:16:52;;;;;;;;;;;;;;;20.15;100.00;97619.31;5077457;28;19920;-70
2023/05/21 07:19:18;;;;;;;;;;;;;;;20.22;100.00;97616.88;5081015;28;19972;-70
2023/05/21 07:21:45;;;;;;;;;;;;;;;20.31;100.00;97614.91;5074395;28;19925;-71
2023/05/21 07:24:13;;;;;;;;;;;;;;;20.39;100.00;97605.88;5085271;28;20000;-70
2023/05/21 07:26:40;;;;;;;;;;;;;;;20.60;100.00;97613.19;5075433;28;20024;-70
2023/05/21 07:29:06;;;;;;;;;;;;;;;20.59;100.00;97615.09;5075788;28;19933;-71
2023/05/21 07:31:32;;;;;;;;;;;;;;;20.61;100.00;97610.13;5074648;28;19989;-71
2023/05/21 07:33:59;;;;;;;;;;;;;;;20.73;100.00;97614.81;5077378;28;19952;-71
2023/05/21 07:36:26;;;;;;;;;;;;;;;20.86;100.00;97610.97;5077462;28;19951;-71
2023/05/21 07:38:52;;;;;;;;;;;;;;;21.05;100.00;97607.72;5077211;28;19931;-71
2023/05/21 07:41:20;;;;;;;;;;;;;;;21.08;100.00;97609.75;5078400;28;20271;-71
2023/05/21 07:43:47;;;;;;;;;;;;;;;21.06;100.00;97607.41;5077421;28;19924;-71
2023/05/21 07:46:13;;;;;;;;;;;;;;;21.09;100.00;97609.47;5077069;28;19924;-72
2023/05/21 07:48:40;;;;;;;;;;;;;;;21.22;100.00;97608.34;5075027;28;19924;-72
2023/05/21 07:51:07;;;;;;;;;;;;;;;21.35;100.00;97609.91;5073376;28;19990;-72
2023/05/21 07:53:33;;;;;;;;;;;;;;;21.48;100.00;97602.56;5075321;28;19932;-72
2023/05/21 07:56:00;;;;;;;;;;;;;;;21.53;100.00;97605.84;5077292;28;19976;-72
2023/05/21 07:58:27;;;;;;;;;;;;;;;21.58;100.00;97601.31;5077129;28;19925;-72
2023/05/21 08:00:54;;;;;;;;;;;;;;;21.60;100.00;97612.66;5071937;28;19988;-72
2023/05/21 08:03:20;;;;;;;;;;;;;;;21.64;100.00;97605.38;5077804;28;19921;-72
2023/05/21 08:05:48;;;;;;;;;;;;;;;21.68;100.00;97612.50;5077470;28;19992;-71
2023/05/21 08:08:14;;;;;;;;;;;;;;;21.64;100.00;97611.59;5077832;28;19935;-72
2023/05/21 08:10:41;;;;;;;;;;;;;;;21.69;100.00;97610.59;5075554;28;20511;-72
2023/05/21 08:13:07;;;;;;;;;;;;;;;21.73;100.00;97616.91;5073694;28;20322;-72
2023/05/21 08:15:35;;;;;;;;;;;;;;;21.74;100.00;97605.72;5076004;28;19960;-71
2023/05/21 08:18:01;;;;;;;;;;;;;;;21.83;100.00;97611.81;5077341;28;19935;-70
2023/05/21 08:20:29;;;;;;;;;;;;;;;21.80;100.00;97606.25;5081606;28;20004;-70
2023/05/21 08:22:56;;;;;;;;;;;;;;;21.80;100.00;97614.41;5072073;28;19925;-70
2023/05/21 08:25:22;;;;;;;;;;;;;;;21.73;100.00;97619.63;5076630;28;19928;-70
2023/05/21 08:27:48;;;;;;;;;;;;;;;21.72;100.00;97613.44;5076336;28;19932;-70
2023/05/21 08:30:15;;;;;;;;;;;;;;;21.65;100.00;97615.13;5076870;28;19925;-70
2023/05/21 08:32:43;;;;;;;;;;;;;;;21.65;100.00;97617.84;5074152;28;19932;-70
2023/05/21 08:35:09;;;;;;;;;;;;;;;21.68;100.00;97604.38;5072559;28;19964;-70
2023/05/21 08:37:35;;;;;;;;;;;;;;;21.58;100.00;97618.41;5073897;28;19924;-70
2023/05/21 08:40:03;;;;;;;;;;;;;;;21.67;100.00;97616.34;5075908;28;20378;-70
2023/05/21 08:42:33;;;;;;;;;;;;;;;21.69;100.00;97605.16;5080320;28;20360;-70
2023/05/21 08:45:00;;;;;;;;;;;;;;;21.75;100.00;97601.88;5072148;28;19927;-70
2023/05/21 08:47:27;;;;;;;;;;;;;;;21.86;100.00;97604.88;5075391;28;19964;-71
2023/05/21 08:49:54;;;;;;;;;;;;;;;21.89;100.00;97599.59;5078311;28;19988;-71
2023/05/21 08:52:21;;;;;;;;;;;;;;;21.79;100.00;97596.50;5075907;28;20554;-71
2023/05/21 08:54:50;;;;;;;;;;;;;;;21.81;100.00;97603.22;5073337;28;20007;-70
2023/05/21 08:57:17;;;;;;;;;;;;;;;21.98;100.00;97602.16;5071982;28;20309;-71
2023/05/21 08:59:43;;;;;;;;;;;;;;;22.14;100.00;97594.88;5076137;28;20685;-71
2023/05/21 09:02:11;;;;;;;;;;;;;;;22.20;100.00;97603.56;5069671;28;19974;-70
2023/05/21 09:04:38;;;;;;;;;;;;;;;22.29;100.00;97593.34;5081424;28;19932;-72
2023/05/21 09:07:06;;;;;;;;;;;;;;;22.48;100.00;97594.28;5069240;28;19956;-71
2023/05/21 09:09:33;;;;;;;;;;;;;;;22.60;100.00;97594.22;5075103;28;19975;-71
2023/05/21 09:12:00;;;;;;;;;;;;;;;22.85;100.00;97589.44;5075465;28;20323;-71
2023/05/21 09:14:26;;;;;;;;;;;;;;;23.02;99.48;97589.13;5075612;28;19959;-71
2023/05/21 09:16:53;;;;;;;;;;;;;;;23.09;97.41;97588.47;5075231;28;19971;-71
2023/05/21 09:19:20;;;;;;;;;;;;;;;23.29;93.16;97592.06;5072236;28;19967;-71
2023/05/21 09:21:46;;;;;;;;;;;;;;;23.42;91.34;97596.31;5072279;28;19980;-71
2023/05/21 09:24:14;;;;;;;;;;;;;;;23.47;88.42;97599.56;5075493;28;20717;-71
2023/05/21 09:26:42;;;;;;;;;;;;;;;23.60;88.26;97583.88;5081823;28;19924;-74
2023/05/21 09:29:08;;;;;;;;;;;;;;;23.64;85.03;97582.03;5077942;28;19925;-74
2023/05/21 09:31:35;;;;;;;;;;;;;;;23.67;83.62;97585.97;5075703;28;19960;-74
2023/05/21 09:34:01;;;;;;;;;;;;;;;23.65;81.35;97578.94;5075818;28;20004;-74
2023/05/21 09:36:29;;;;;;;;;;;;;;;23.64;80.79;97590.22;5075062;28;19925;-73
2023/05/21 09:38:57;;;;;;;;;;;;;;;23.62;80.30;97589.75;5075119;28;19954;-73
2023/05/21 09:41:32;;;;;;;;;;;;;;;23.52;81.11;97593.81;5076036;28;19929;-75
2023/05/21 09:43:59;;;;;;;;;;;;;;;23.69;83.12;97578.22;5069844;28;19951;-74
2023/05/21 09:46:26;;;;;;;;;;;;;;;23.74;83.70;97595.09;5074322;28;19924;-75
2023/05/21 09:48:52;;;;;;;;;;;;;;;23.80;83.87;97582.00;5078153;28;19924;-74
2023/05/21 09:51:20;;;;;;;;;;;;;;;23.90;83.91;97584.13;5068587;28;20072;-73
2023/05/21 09:53:50;;;;;;;;;;;;;;;23.68;82.00;97574.69;5072684;28;19925;-73
2023/05/21 09:56:17;;;;;;;;;;;;;;;23.81;80.57;97591.72;5074837;28;19929;-74
2023/05/21 09:58:45;;;;;;;;;;;;;;;23.82;78.96;97585.13;5076843;28;19956;-74
2023/05/21 10:01:12;;;;;;;;;;;;;;;23.94;79.06;97585.00;5075519;28;19931;-74
2023/05/21 10:03:39;;;;;;;;;;;;;;;23.97;78.76;97582.34;5073204;28;19925;-74
2023/05/21 10:06:07;;;;;;;;;;;;;;;24.01;78.30;97574.25;5071361;28;19925;-74
2023/05/21 10:08:35;;;;;;;;;;;;;;;23.98;76.67;97583.94;5074220;28;19956;-73
2023/05/21 10:11:02;;;;;;;;;;;;;;;24.16;77.25;97587.06;5083610;28;19924;-71
2023/05/21 10:13:30;;;;;;;;;;;;;;;24.21;74.85;97581.31;5071035;28;20027;-71
2023/05/21 10:16:01;;;;;;;;;;;;;;;24.25;72.10;97579.44;5071120;28;19931;-71
2023/05/21 10:18:28;;;;;;;;;;;;;;;24.28;69.47;97584.19;5073539;28;19921;-71
2023/05/21 10:20:55;;;;;;;;;;;;;;;24.23;68.39;97579.03;5076928;28;19928;-72
2023/05/21 10:23:23;;;;;;;;;;;;;;;24.27;69.14;97581.81;5074700;28;19925;-71
2023/05/21 10:25:50;;;;;;;;;;;;;;;24.50;69.16;97582.66;5074185;28;19924;-72
2023/05/21 10:28:17;;;;;;;;;;;;;;;24.44;70.42;97578.66;5074641;28;19932;-71
2023/05/21 10:30:44;;;;;;;;;;;;;;;24.52;71.68;97581.16;5077670;28;19925;-71
2023/05/21 10:33:12;;;;;;;;;;;;;;;24.62;71.75;97572.38;5074375;28;20034;-71
2023/05/21 10:35:40;;;;;;;;;;;;;;;24.80;71.41;97569.16;5071993;28;19929;-72
2023/05/21 10:38:08;;;;;;;;;;;;;;;24.77;68.50;97572.59;5071039;28;19944;-71
2023/05/21 10:40:35;;;;;;;;;;;;;;;24.96;64.29;97562.44;5073257;28;19963;-72
2023/05/21 10:43:27;;;;;;;;;;;;;;;24.96;64.80;97569.84;5075075;28;19959;-72
2023/05/21 10:46:06;;;;;;;;;;;;;;;25.09;61.20;97568.53;5075099;28;19992;-71
2023/05/21 10:48:38;;;;;;;;;;;;;;;24.94;60.16;97569.44;5067169;28;19931;-71
2023/05/21 10:51:16;;;;;;;;;;;;;;;24.83;58.87;97557.53;5076607;28;19928;-72
2023/05/21 10:53:51;;;;;;;;;;;;;;;25.03;58.77;97573.50;5072623;28;19951;-71
2023/05/21 10:56:22;;;;;;;;;;;;;;;24.82;58.39;97558.69;5074319;28;19925;-72
2023/05/21 10:59:10;;;;;;;;;;;;;;;24.94;58.63;97563.97;5074240;28;19921;-72
2023/05/21 11:01:37;;;;;;;;;;;;;;;24.82;59.88;97561.44;5070851;28;19947;-71
2023/05/21 11:04:04;;;;;;;;;;;;;;;25.04;59.03;97563.34;5074401;28;19924;-72
2023/05/21 11:06:32;;;;;;;;;;;;;;;25.14;59.55;97560.78;5071785;28;19940;-72
2023/05/21 11:09:01;;;;;;;;;;;;;;;25.01;59.21;97561.34;5069467;28;19980;-72
2023/05/21 11:11:42;;;;;;;;;;;;;;;25.11;58.76;97571.66;5081767;28;19925;-71
2023/05/21 11:14:23;;;;;;;;;;;;;;;25.10;57.10;97559.94;5074082;28;19932;-72
2023/05/21 11:16:50;;;;;;;;;;;;;;;25.04;57.06;97566.06;5085341;28;19932;-71
2023/05/21 11:19:17;;;;;;;;;;;;;;;25.12;55.56;97565.06;5069543;28;20060;-72
2023/05/21 11:21:49;;;;;;;;;;;;;;;25.08;55.94;97553.28;5071528;28;19924;-72
2023/05/21 11:24:18;;;;;;;;;;;;;;;25.17;56.39;97568.25;5073905;28;19925;-70
2023/05/21 11:27:05;;;;;;;;;;;;;;;25.10;55.80;97559.16;5073780;28;20325;-71
2023/05/21 11:29:46;;;;;;;;;;;;;;;25.02;56.27;97561.00;5078301;28;19924;-71
2023/05/21 11:32:14;;;;;;;;;;;;;;;25.05;56.74;97563.00;5067963;28;19924;-70
2023/05/21 11:34:41;;;;;;;;;;;;;;;25.01;56.72;97558.63;5073517;28;19921;-71
2023/05/21 11:37:26;;;;;;;;;;;;;;;25.24;56.65;97559.38;5077784;28;19929;-72
2023/05/21 11:39:53;;;;;;;;;;;;;;;25.13;56.15;97558.41;5078356;28;20293;-74
2023/05/21 11:42:27;;;;;;;;;;;;;;;25.00;55.74;97567.97;5078162;28;19925;-72
2023/05/21 11:44:55;;;;;;;;;;;;;;;25.18;56.57;97561.66;5077981;28;19997;-72
2023/05/21 11:47:22;;;;;;;;;;;;;;;25.14;56.12;97560.00;5079054;28;19956;-72
2023/05/21 11:49:49;;;;;;;;;;;;;;;25.25;55.95;97560.97;5070761;28;19925;-72
2023/05/21 11:52:15;;;;;;;;;;;;;;;25.25;55.73;97558.25;5085920;28;19936;-72
2023/05/21 11:54:45;;;;;;;;;;;;;;;25.27;55.86;97558.66;5075574;28;19959;-72
2023/05/21 11:57:13;;;;;;;;;;;;;;;25.24;56.72;97565.66;5073338;28;19968;-73
2023/05/21 11:59:41;;;;;;;;;;;;;;;25.37;57.49;97546.31;5075384;28;20711;-71
2023/05/21 12:02:07;;;;;;;;;;;;;;;25.42;58.01;97549.50;5075405;28;19925;-71
2023/05/21 12:04:35;;;;;;;;;;;;;;;24.76;59.76;97547.22;5079972;28;19921;-71
2023/05/21 12:07:03;;;;;;;;;;;;;;;25.03;58.09;97553.59;5083279;28;19988;-71
2023/05/21 12:09:30;;;;;;;;;;;;;;;25.22;56.25;97550.78;5080075;28;19954;-71
2023/05/21 12:11:58;;;;;;;;;;;;;;;25.27;55.91;97547.72;5074722;28;19925;-71
2023/05/21 12:14:24;;;;;;;;;;;;;;;25.34;54.35;97547.84;5084615;28;19929;-72
2023/05/21 12:16:50;;;;;;;;;;;;;;;25.42;54.08;97544.03;5076260;28;19924;-71
2023/05/21 12:19:17;;;;;;;;;;;;;;;25.62;53.89;97542.00;5072180;28;19929;-71
2023/05/21 12:21:43;;;;;;;;;;;;;;;25.74;54.37;97548.06;5075104;28;19921;-71
2023/05/21 12:24:10;;;;;;;;;;;;;;;25.97;54.08;97539.72;5076994;28;19925;-71
2023/05/21 12:26:37;;;;;;;;;;;;;;;25.97;54.42;97552.63;5076936;28;19974;-72
2023/05/21 12:29:05;;;;;;;;;;;;;;;25.82;54.18;97537.97;5076868;28;20059;-72
2023/05/21 12:31:32;;;;;;;;;;;;;;;25.93;54.37;97543.59;5074529;28;19924;-72
2023/05/21 12:33:58;;;;;;;;;;;;;;;25.89;54.35;97550.97;5071593;28;19924;-73
2023/05/21 12:36:26;;;;;;;;;;;;;;;25.93;54.91;97544.38;5084644;28;19929;-71
2023/05/21 12:38:53;;;;;;;;;;;;;;;26.03;54.74;97546.44;5071606;28;20002;-72
2023/05/21 12:41:20;;;;;;;;;;;;;;;26.01;54.78;97543.31;5069282;28;19960;-72